sensor_id;sensor_type;location;lat;lon;timestamp;P1;durP1;ratioP1;P2;durP2;ratioP2
13012;SDS011;22580;57.670;12.006;2023-06-14T00:02:00;1.00;;;1.00;;
13012;SDS011;22580;57.670;12.006;2023-06-14T00:04:28;1.15;;;1.15;;
13012;SDS011;22580;57.670;12.006;2023-06-14T00:06:56;0.90;;;0.90;;
13012;SDS011;22580;57.670;12.006;2023-06-14T00:09:23;1.00;;;1.00;;
13012;SDS011;22580;57.670;12.006;2023-06-14T00:11:50;0.82;;;0.82;;
13012;SDS011;22580;57.670;12.006;2023-06-14T00:14:17;1.00;;;1.00;;
13012;SDS011;22580;57.670;12.006;2023-06-14T00:16:44;0.95;;;0.95;;
13012;SDS011;22580;57.670;12.006;2023-06-14T00:19:10;1.00;;;1.00;;
13012;SDS011;22580;57.670;12.006;2023-06-14T00:21:39;0.90;;;0.90;;
13012;SDS011;22580;57.670;12.006;2023-06-14T00:24:06;0.70;;;0.70;;
13012;SDS011;22580;57.670;12.006;2023-06-14T00:26:34;0.60;;;0.60;;
13012;SDS011;22580;57.670;12.006;2023-06-14T00:29:01;0.50;;;0.50;;
13012;SDS011;22580;57.670;12.006;2023-06-14T00:31:28;0.70;;;0.70;;
13012;SDS011;22580;57.670;12.006;2023-06-14T00:33:55;0.50;;;0.50;;
13012;SDS011;22580;57.670;12.006;2023-06-14T00:36:22;0.50;;;0.50;;
13012;SDS011;22580;57.670;12.006;2023-06-14T00:38:50;0.60;;;0.60;;
13012;SDS011;22580;57.670;12.006;2023-06-14T00:41:17;0.88;;;0.88;;
13012;SDS011;22580;57.670;12.006;2023-06-14T00:43:44;0.70;;;0.70;;
13012;SDS011;22580;57.670;12.006;2023-06-14T00:46:11;0.50;;;0.50;;
13012;SDS011;22580;57.670;12.006;2023-06-14T00:48:39;0.60;;;0.60;;
13012;SDS011;22580;57.670;12.006;2023-06-14T00:51:07;0.50;;;0.50;;
13012;SDS011;22580;57.670;12.006;2023-06-14T00:53:34;0.68;;;0.68;;
13012;SDS011;22580;57.670;12.006;2023-06-14T00:56:03;0.70;;;0.70;;
13012;SDS011;22580;57.670;12.006;2023-06-14T00:58:30;0.70;;;0.70;;
13012;SDS011;22580;57.670;12.006;2023-06-14T01:00:57;0.82;;;0.82;;
13012;SDS011;22580;57.670;12.006;2023-06-14T01:03:24;0.70;;;0.70;;
13012;SDS011;22580;57.670;12.006;2023-06-14T01:05:56;0.77;;;0.77;;
13012;SDS011;22580;57.670;12.006;2023-06-14T01:08:29;0.80;;;0.80;;
13012;SDS011;22580;57.670;12.006;2023-06-14T01:11:21;0.65;;;0.65;;
13012;SDS011;22580;57.670;12.006;2023-06-14T01:13:53;0.43;;;0.43;;
13012;SDS011;22580;57.670;12.006;2023-06-14T01:16:22;0.60;;;0.60;;
13012;SDS011;22580;57.670;12.006;2023-06-14T01:18:51;0.60;;;0.60;;
13012;SDS011;22580;57.670;12.006;2023-06-14T01:21:21;0.63;;;0.63;;
13012;SDS011;22580;57.670;12.006;2023-06-14T01:23:50;0.70;;;0.70;;
13012;SDS011;22580;57.670;12.006;2023-06-14T01:26:20;0.60;;;0.60;;
13012;SDS011;22580;57.670;12.006;2023-06-14T01:28:47;0.60;;;0.60;;
13012;SDS011;22580;57.670;12.006;2023-06-14T01:31:16;0.70;;;0.70;;
13012;SDS011;22580;57.670;12.006;2023-06-14T01:33:47;0.70;;;0.70;;
13012;SDS011;22580;57.670;12.006;2023-06-14T01:36:16;0.63;;;0.63;;
13012;SDS011;22580;57.670;12.006;2023-06-14T01:38:45;0.50;;;0.50;;
13012;SDS011;22580;57.670;12.006;2023-06-14T01:41:15;0.65;;;0.65;;
13012;SDS011;22580;57.670;12.006;2023-06-14T01:43:43;0.60;;;0.60;;
13012;SDS011;22580;57.670;12.006;2023-06-14T01:46:11;0.50;;;0.50;;
13012;SDS011;22580;57.670;12.006;2023-06-14T01:48:40;0.80;;;0.80;;
13012;SDS011;22580;57.670;12.006;2023-06-14T01:51:07;0.47;;;0.47;;
13012;SDS011;22580;57.670;12.006;2023-06-14T01:53:34;0.50;;;0.50;;
13012;SDS011;22580;57.670;12.006;2023-06-14T01:56:01;0.60;;;0.60;;
13012;SDS011;22580;57.670;12.006;2023-06-14T01:58:30;0.73;;;0.73;;
13012;SDS011;22580;57.670;12.006;2023-06-14T02:00:57;0.60;;;0.60;;
13012;SDS011;22580;57.670;12.006;2023-06-14T02:03:26;0.70;;;0.70;;
13012;SDS011;22580;57.670;12.006;2023-06-14T02:05:54;0.70;;;0.70;;
13012;SDS011;22580;57.670;12.006;2023-06-14T02:08:22;0.63;;;0.63;;
13012;SDS011;22580;57.670;12.006;2023-06-14T02:10:49;0.55;;;0.55;;
13012;SDS011;22580;57.670;12.006;2023-06-14T02:13:16;0.50;;;0.50;;
13012;SDS011;22580;57.670;12.006;2023-06-14T02:15:45;0.60;;;0.60;;
13012;SDS011;22580;57.670;12.006;2023-06-14T02:18:13;0.70;;;0.70;;
13012;SDS011;22580;57.670;12.006;2023-06-14T02:20:41;0.60;;;0.60;;
13012;SDS011;22580;57.670;12.006;2023-06-14T02:23:08;0.50;;;0.50;;
13012;SDS011;22580;57.670;12.006;2023-06-14T02:25:35;0.70;;;0.70;;
13012;SDS011;22580;57.670;12.006;2023-06-14T02:28:03;0.50;;;0.50;;
13012;SDS011;22580;57.670;12.006;2023-06-14T02:30:30;0.50;;;0.50;;
13012;SDS011;22580;57.670;12.006;2023-06-14T02:32:58;0.47;;;0.47;;
13012;SDS011;22580;57.670;12.006;2023-06-14T02:35:25;0.50;;;0.50;;
13012;SDS011;22580;57.670;12.006;2023-06-14T02:37:53;0.60;;;0.60;;
13012;SDS011;22580;57.670;12.006;2023-06-14T02:40:20;0.30;;;0.30;;
13012;SDS011;22580;57.670;12.006;2023-06-14T02:42:47;0.40;;;0.40;;
13012;SDS011;22580;57.670;12.006;2023-06-14T02:45:14;0.40;;;0.40;;
13012;SDS011;22580;57.670;12.006;2023-06-14T02:47:41;0.30;;;0.30;;
13012;SDS011;22580;57.670;12.006;2023-06-14T02:50:10;0.43;;;0.43;;
13012;SDS011;22580;57.670;12.006;2023-06-14T02:52:37;0.38;;;0.38;;
13012;SDS011;22580;57.670;12.006;2023-06-14T02:55:07;0.40;;;0.40;;
13012;SDS011;22580;57.670;12.006;2023-06-14T02:57:34;0.40;;;0.40;;
13012;SDS011;22580;57.670;12.006;2023-06-14T03:00:02;0.40;;;0.40;;
13012;SDS011;22580;57.670;12.006;2023-06-14T03:02:29;0.38;;;0.38;;
13012;SDS011;22580;57.670;12.006;2023-06-14T03:04:56;0.40;;;0.40;;
13012;SDS011;22580;57.670;12.006;2023-06-14T03:07:27;0.40;;;0.40;;
13012;SDS011;22580;57.670;12.006;2023-06-14T03:09:54;0.20;;;0.20;;
13012;SDS011;22580;57.670;12.006;2023-06-14T03:12:22;0.30;;;0.30;;
13012;SDS011;22580;57.670;12.006;2023-06-14T03:14:49;0.22;;;0.22;;
13012;SDS011;22580;57.670;12.006;2023-06-14T03:17:16;0.28;;;0.28;;
13012;SDS011;22580;57.670;12.006;2023-06-14T03:19:44;0.35;;;0.35;;
13012;SDS011;22580;57.670;12.006;2023-06-14T03:22:11;0.30;;;0.30;;
13012;SDS011;22580;57.670;12.006;2023-06-14T03:24:42;0.30;;;0.30;;
13012;SDS011;22580;57.670;12.006;2023-06-14T03:27:09;0.30;;;0.30;;
13012;SDS011;22580;57.670;12.006;2023-06-14T03:29:38;0.20;;;0.20;;
13012;SDS011;22580;57.670;12.006;2023-06-14T03:32:05;0.20;;;0.20;;
13012;SDS011;22580;57.670;12.006;2023-06-14T03:34:32;0.30;;;0.30;;
13012;SDS011;22580;57.670;12.006;2023-06-14T03:36:59;0.30;;;0.30;;
13012;SDS011;22580;57.670;12.006;2023-06-14T03:39:26;0.20;;;0.20;;
13012;SDS011;22580;57.670;12.006;2023-06-14T03:41:55;0.28;;;0.28;;
13012;SDS011;22580;57.670;12.006;2023-06-14T03:44:22;0.20;;;0.20;;
13012;SDS011;22580;57.670;12.006;2023-06-14T03:46:49;0.20;;;0.20;;
13012;SDS011;22580;57.670;12.006;2023-06-14T03:49:16;0.20;;;0.20;;
13012;SDS011;22580;57.670;12.006;2023-06-14T03:51:43;0.20;;;0.20;;
13012;SDS011;22580;57.670;12.006;2023-06-14T03:54:16;0.28;;;0.28;;
13012;SDS011;22580;57.670;12.006;2023-06-14T03:56:46;0.20;;;0.20;;
13012;SDS011;22580;57.670;12.006;2023-06-14T03:59:14;0.30;;;0.30;;
13012;SDS011;22580;57.670;12.006;2023-06-14T04:01:41;0.40;;;0.40;;
13012;SDS011;22580;57.670;12.006;2023-06-14T04:04:10;0.20;;;0.20;;
13012;SDS011;22580;57.670;12.006;2023-06-14T04:06:36;0.30;;;0.30;;
13012;SDS011;22580;57.670;12.006;2023-06-14T04:09:05;0.30;;;0.30;;
13012;SDS011;22580;57.670;12.006;2023-06-14T04:11:32;0.40;;;0.40;;
13012;SDS011;22580;57.670;12.006;2023-06-14T04:13:59;0.40;;;0.40;;
13012;SDS011;22580;57.670;12.006;2023-06-14T04:16:30;0.30;;;0.30;;
13012;SDS011;22580;57.670;12.006;2023-06-14T04:18:57;0.30;;;0.30;;
13012;SDS011;22580;57.670;12.006;2023-06-14T04:21:24;0.35;;;0.35;;
13012;SDS011;22580;57.670;12.006;2023-06-14T04:23:53;0.30;;;0.30;;
13012;SDS011;22580;57.670;12.006;2023-06-14T04:26:20;0.50;;;0.50;;
13012;SDS011;22580;57.670;12.006;2023-06-14T04:28:49;0.35;;;0.35;;
13012;SDS011;22580;57.670;12.006;2023-06-14T04:31:16;0.20;;;0.20;;
13012;SDS011;22580;57.670;12.006;2023-06-14T04:33:44;0.13;;;0.13;;
13012;SDS011;22580;57.670;12.006;2023-06-14T04:36:12;0.30;;;0.30;;
13012;SDS011;22580;57.670;12.006;2023-06-14T04:38:42;0.22;;;0.22;;
13012;SDS011;22580;57.670;12.006;2023-06-14T04:41:10;0.30;;;0.30;;
13012;SDS011;22580;57.670;12.006;2023-06-14T04:43:37;0.30;;;0.30;;
13012;SDS011;22580;57.670;12.006;2023-06-14T04:46:05;0.20;;;0.20;;
13012;SDS011;22580;57.670;12.006;2023-06-14T04:48:35;0.30;;;0.30;;
13012;SDS011;22580;57.670;12.006;2023-06-14T04:51:04;0.30;;;0.30;;
13012;SDS011;22580;57.670;12.006;2023-06-14T04:53:31;0.30;;;0.30;;
13012;SDS011;22580;57.670;12.006;2023-06-14T04:55:58;0.32;;;0.32;;
13012;SDS011;22580;57.670;12.006;2023-06-14T04:58:27;0.40;;;0.40;;
13012;SDS011;22580;57.670;12.006;2023-06-14T05:00:54;0.40;;;0.40;;
13012;SDS011;22580;57.670;12.006;2023-06-14T05:03:22;0.38;;;0.38;;
13012;SDS011;22580;57.670;12.006;2023-06-14T05:05:49;0.50;;;0.50;;
13012;SDS011;22580;57.670;12.006;2023-06-14T05:08:19;0.30;;;0.30;;
13012;SDS011;22580;57.670;12.006;2023-06-14T05:10:48;0.43;;;0.43;;
13012;SDS011;22580;57.670;12.006;2023-06-14T05:13:15;0.40;;;0.40;;
13012;SDS011;22580;57.670;12.006;2023-06-14T05:15:42;0.40;;;0.40;;
13012;SDS011;22580;57.670;12.006;2023-06-14T05:18:09;0.30;;;0.30;;
13012;SDS011;22580;57.670;12.006;2023-06-14T05:20:38;0.93;;;0.90;;
13012;SDS011;22580;57.670;12.006;2023-06-14T05:23:06;0.82;;;0.82;;
13012;SDS011;22580;57.670;12.006;2023-06-14T05:25:35;0.80;;;0.80;;
13012;SDS011;22580;57.670;12.006;2023-06-14T05:28:03;0.50;;;0.50;;
13012;SDS011;22580;57.670;12.006;2023-06-14T05:30:30;0.80;;;0.75;;
13012;SDS011;22580;57.670;12.006;2023-06-14T05:32:58;0.80;;;0.80;;
13012;SDS011;22580;57.670;12.006;2023-06-14T05:35:25;0.65;;;0.65;;
13012;SDS011;22580;57.670;12.006;2023-06-14T05:37:52;0.77;;;0.77;;
13012;SDS011;22580;57.670;12.006;2023-06-14T05:40:20;0.70;;;0.70;;
13012;SDS011;22580;57.670;12.006;2023-06-14T05:42:49;0.63;;;0.63;;
13012;SDS011;22580;57.670;12.006;2023-06-14T05:45:16;1.00;;;0.80;;
13012;SDS011;22580;57.670;12.006;2023-06-14T05:47:43;0.70;;;0.70;;
13012;SDS011;22580;57.670;12.006;2023-06-14T05:50:10;0.70;;;0.70;;
13012;SDS011;22580;57.670;12.006;2023-06-14T05:52:37;0.70;;;0.70;;
13012;SDS011;22580;57.670;12.006;2023-06-14T05:55:04;0.63;;;0.63;;
13012;SDS011;22580;57.670;12.006;2023-06-14T05:57:32;0.57;;;0.57;;
13012;SDS011;22580;57.670;12.006;2023-06-14T06:00:01;0.70;;;0.70;;
13012;SDS011;22580;57.670;12.006;2023-06-14T06:02:34;0.68;;;0.68;;
13012;SDS011;22580;57.670;12.006;2023-06-14T06:05:01;0.70;;;0.70;;
13012;SDS011;22580;57.670;12.006;2023-06-14T06:07:29;0.55;;;0.55;;
13012;SDS011;22580;57.670;12.006;2023-06-14T06:09:56;0.80;;;0.80;;
13012;SDS011;22580;57.670;12.006;2023-06-14T06:12:24;0.60;;;0.60;;
13012;SDS011;22580;57.670;12.006;2023-06-14T06:14:54;0.70;;;0.70;;
13012;SDS011;22580;57.670;12.006;2023-06-14T06:17:22;0.90;;;0.90;;
13012;SDS011;22580;57.670;12.006;2023-06-14T06:19:51;0.80;;;0.80;;
13012;SDS011;22580;57.670;12.006;2023-06-14T06:22:18;0.80;;;0.80;;
13012;SDS011;22580;57.670;12.006;2023-06-14T06:24:45;0.70;;;0.70;;
13012;SDS011;22580;57.670;12.006;2023-06-14T06:27:12;0.80;;;0.80;;
13012;SDS011;22580;57.670;12.006;2023-06-14T06:29:41;1.13;;;1.13;;
13012;SDS011;22580;57.670;12.006;2023-06-14T06:32:10;0.80;;;0.80;;
13012;SDS011;22580;57.670;12.006;2023-06-14T06:34:38;0.85;;;0.85;;
13012;SDS011;22580;57.670;12.006;2023-06-14T06:37:05;1.10;;;1.10;;
13012;SDS011;22580;57.670;12.006;2023-06-14T06:39:32;1.00;;;1.00;;
13012;SDS011;22580;57.670;12.006;2023-06-14T06:42:01;1.05;;;1.05;;
13012;SDS011;22580;57.670;12.006;2023-06-14T06:44:28;1.00;;;1.00;;
13012;SDS011;22580;57.670;12.006;2023-06-14T06:46:55;1.00;;;1.00;;
13012;SDS011;22580;57.670;12.006;2023-06-14T06:49:21;0.90;;;0.90;;
13012;SDS011;22580;57.670;12.006;2023-06-14T06:52:00;1.40;;;1.38;;
13012;SDS011;22580;57.670;12.006;2023-06-14T06:54:28;1.20;;;1.20;;
13012;SDS011;22580;57.670;12.006;2023-06-14T06:56:55;1.10;;;1.10;;
13012;SDS011;22580;57.670;12.006;2023-06-14T06:59:22;1.40;;;1.30;;
13012;SDS011;22580;57.670;12.006;2023-06-14T07:01:50;1.17;;;1.17;;
13012;SDS011;22580;57.670;12.006;2023-06-14T07:04:17;0.90;;;0.90;;
13012;SDS011;22580;57.670;12.006;2023-06-14T07:06:45;0.95;;;0.95;;
13012;SDS011;22580;57.670;12.006;2023-06-14T07:09:14;1.00;;;1.00;;
13012;SDS011;22580;57.670;12.006;2023-06-14T07:11:43;1.00;;;1.00;;
13012;SDS011;22580;57.670;12.006;2023-06-14T07:14:10;0.70;;;0.70;;
13012;SDS011;22580;57.670;12.006;2023-06-14T07:16:38;0.60;;;0.60;;
13012;SDS011;22580;57.670;12.006;2023-06-14T07:19:06;0.70;;;0.70;;
13012;SDS011;22580;57.670;12.006;2023-06-14T07:21:34;0.70;;;0.70;;
13012;SDS011;22580;57.670;12.006;2023-06-14T07:24:02;1.35;;;1.25;;
13012;SDS011;22580;57.670;12.006;2023-06-14T07:26:33;1.00;;;1.00;;
13012;SDS011;22580;57.670;12.006;2023-06-14T07:29:00;1.40;;;1.30;;
13012;SDS011;22580;57.670;12.006;2023-06-14T07:31:27;1.20;;;1.20;;
13012;SDS011;22580;57.670;12.006;2023-06-14T07:33:54;1.10;;;1.10;;
13012;SDS011;22580;57.670;12.006;2023-06-14T07:36:21;0.88;;;0.88;;
13012;SDS011;22580;57.670;12.006;2023-06-14T07:38:49;1.48;;;1.38;;
13012;SDS011;22580;57.670;12.006;2023-06-14T07:41:17;2.10;;;2.00;;
13012;SDS011;22580;57.670;12.006;2023-06-14T07:43:46;1.80;;;1.70;;
13012;SDS011;22580;57.670;12.006;2023-06-14T07:46:13;1.40;;;1.40;;
13012;SDS011;22580;57.670;12.006;2023-06-14T07:48:49;1.13;;;1.13;;
13012;SDS011;22580;57.670;12.006;2023-06-14T07:51:16;1.10;;;1.10;;
13012;SDS011;22580;57.670;12.006;2023-06-14T07:53:43;1.15;;;1.15;;
13012;SDS011;22580;57.670;12.006;2023-06-14T07:56:10;1.80;;;1.70;;
13012;SDS011;22580;57.670;12.006;2023-06-14T07:58:37;1.67;;;1.58;;
13012;SDS011;22580;57.670;12.006;2023-06-14T08:01:06;2.05;;;1.95;;
13012;SDS011;22580;57.670;12.006;2023-06-14T08:03:33;1.88;;;1.77;;
13012;SDS011;22580;57.670;12.006;2023-06-14T08:06:00;1.65;;;1.58;;
13012;SDS011;22580;57.670;12.006;2023-06-14T08:08:28;1.30;;;1.30;;
13012;SDS011;22580;57.670;12.006;2023-06-14T08:10:55;1.80;;;1.70;;
13012;SDS011;22580;57.670;12.006;2023-06-14T08:13:22;2.08;;;1.88;;
13012;SDS011;22580;57.670;12.006;2023-06-14T08:15:50;2.38;;;2.28;;
13012;SDS011;22580;57.670;12.006;2023-06-14T08:18:18;2.00;;;1.90;;
13012;SDS011;22580;57.670;12.006;2023-06-14T08:20:45;1.90;;;1.80;;
13012;SDS011;22580;57.670;12.006;2023-06-14T08:23:12;1.90;;;1.80;;
13012;SDS011;22580;57.670;12.006;2023-06-14T08:25:45;1.65;;;1.55;;
13012;SDS011;22580;57.670;12.006;2023-06-14T08:28:13;1.75;;;1.65;;
13012;SDS011;22580;57.670;12.006;2023-06-14T08:30:41;1.67;;;1.58;;
13012;SDS011;22580;57.670;12.006;2023-06-14T08:33:08;1.23;;;1.23;;
13012;SDS011;22580;57.670;12.006;2023-06-14T08:35:37;1.55;;;1.45;;
13012;SDS011;22580;57.670;12.006;2023-06-14T08:38:04;1.20;;;1.20;;
13012;SDS011;22580;57.670;12.006;2023-06-14T08:40:31;1.83;;;1.73;;
13012;SDS011;22580;57.670;12.006;2023-06-14T08:43:04;2.95;;;2.47;;
13012;SDS011;22580;57.670;12.006;2023-06-14T08:45:32;2.00;;;1.90;;
13012;SDS011;22580;57.670;12.006;2023-06-14T08:47:59;2.38;;;1.98;;
13012;SDS011;22580;57.670;12.006;2023-06-14T08:50:27;1.70;;;1.60;;
13012;SDS011;22580;57.670;12.006;2023-06-14T08:52:58;1.63;;;1.52;;
13012;SDS011;22580;57.670;12.006;2023-06-14T08:55:27;1.20;;;1.20;;
13012;SDS011;22580;57.670;12.006;2023-06-14T08:57:55;1.15;;;1.15;;
13012;SDS011;22580;57.670;12.006;2023-06-14T09:00:23;1.00;;;1.00;;
13012;SDS011;22580;57.670;12.006;2023-06-14T09:02:51;1.05;;;1.05;;
13012;SDS011;22580;57.670;12.006;2023-06-14T09:05:22;1.70;;;1.60;;
13012;SDS011;22580;57.670;12.006;2023-06-14T09:07:50;2.72;;;2.53;;
13012;SDS011;22580;57.670;12.006;2023-06-14T09:10:20;3.20;;;3.00;;
13012;SDS011;22580;57.670;12.006;2023-06-14T09:12:47;2.67;;;2.47;;
13012;SDS011;22580;57.670;12.006;2023-06-14T09:15:14;2.60;;;2.50;;
13012;SDS011;22580;57.670;12.006;2023-06-14T09:17:42;2.75;;;2.55;;
13012;SDS011;22580;57.670;12.006;2023-06-14T09:20:09;2.50;;;2.40;;
13012;SDS011;22580;57.670;12.006;2023-06-14T09:22:38;2.80;;;2.60;;
13012;SDS011;22580;57.670;12.006;2023-06-14T09:25:07;3.10;;;2.90;;
13012;SDS011;22580;57.670;12.006;2023-06-14T09:27:36;2.80;;;2.60;;
13012;SDS011;22580;57.670;12.006;2023-06-14T09:30:05;2.47;;;2.38;;
13012;SDS011;22580;57.670;12.006;2023-06-14T09:32:36;2.58;;;2.45;;
13012;SDS011;22580;57.670;12.006;2023-06-14T09:35:04;2.60;;;2.40;;
13012;SDS011;22580;57.670;12.006;2023-06-14T09:37:34;2.63;;;2.42;;
13012;SDS011;22580;57.670;12.006;2023-06-14T09:40:05;3.10;;;2.90;;
13012;SDS011;22580;57.670;12.006;2023-06-14T09:42:33;2.95;;;2.75;;
13012;SDS011;22580;57.670;12.006;2023-06-14T09:45:03;3.17;;;2.92;;
13012;SDS011;22580;57.670;12.006;2023-06-14T09:47:32;2.50;;;2.40;;
13012;SDS011;22580;57.670;12.006;2023-06-14T09:49:59;2.60;;;2.50;;
13012;SDS011;22580;57.670;12.006;2023-06-14T09:52:25;3.05;;;2.90;;
13012;SDS011;22580;57.670;12.006;2023-06-14T09:54:54;2.90;;;2.70;;
13012;SDS011;22580;57.670;12.006;2023-06-14T09:57:22;2.85;;;2.67;;
13012;SDS011;22580;57.670;12.006;2023-06-14T09:59:52;2.90;;;2.70;;
13012;SDS011;22580;57.670;12.006;2023-06-14T10:02:26;2.97;;;2.67;;
13012;SDS011;22580;57.670;12.006;2023-06-14T10:04:58;3.03;;;2.70;;
13012;SDS011;22580;57.670;12.006;2023-06-14T10:07:32;3.55;;;3.25;;
13012;SDS011;22580;57.670;12.006;2023-06-14T10:10:01;4.82;;;3.47;;
13012;SDS011;22580;57.670;12.006;2023-06-14T10:12:30;2.90;;;2.70;;
13012;SDS011;22580;57.670;12.006;2023-06-14T10:14:57;3.45;;;3.15;;
13012;SDS011;22580;57.670;12.006;2023-06-14T10:17:30;3.08;;;2.88;;
13012;SDS011;22580;57.670;12.006;2023-06-14T10:20:18;2.83;;;2.63;;
13012;SDS011;22580;57.670;12.006;2023-06-14T10:22:55;2.88;;;2.67;;
13012;SDS011;22580;57.670;12.006;2023-06-14T10:25:28;3.00;;;2.80;;
13012;SDS011;22580;57.670;12.006;2023-06-14T10:28:02;2.50;;;2.40;;
13012;SDS011;22580;57.670;12.006;2023-06-14T10:30:41;3.22;;;2.97;;
13012;SDS011;22580;57.670;12.006;2023-06-14T10:33:39;3.03;;;2.65;;
13012;SDS011;22580;57.670;12.006;2023-06-14T10:39:05;2.40;;;2.30;;
13012;SDS011;22580;57.670;12.006;2023-06-14T10:41:34;2.70;;;2.60;;
13012;SDS011;22580;57.670;12.006;2023-06-14T10:44:10;2.83;;;2.63;;
13012;SDS011;22580;57.670;12.006;2023-06-14T10:46:52;2.50;;;2.40;;
13012;SDS011;22580;57.670;12.006;2023-06-14T10:49:36;2.38;;;2.28;;
13012;SDS011;22580;57.670;12.006;2023-06-14T10:52:07;2.78;;;2.60;;
13012;SDS011;22580;57.670;12.006;2023-06-14T10:54:38;2.88;;;2.67;;
13012;SDS011;22580;57.670;12.006;2023-06-14T10:57:38;2.72;;;2.53;;
13012;SDS011;22580;57.670;12.006;2023-06-14T11:00:06;2.67;;;2.50;;
13012;SDS011;22580;57.670;12.006;2023-06-14T11:05:55;2.60;;;2.40;;
13012;SDS011;22580;57.670;12.006;2023-06-14T11:11:31;3.03;;;2.83;;
13012;SDS011;22580;57.670;12.006;2023-06-14T11:13:59;2.75;;;2.55;;
13012;SDS011;22580;57.670;12.006;2023-06-14T11:16:27;2.28;;;2.17;;
13012;SDS011;22580;57.670;12.006;2023-06-14T11:18:57;2.40;;;2.30;;
13012;SDS011;22580;57.670;12.006;2023-06-14T11:21:25;2.67;;;2.47;;
13012;SDS011;22580;57.670;12.006;2023-06-14T11:23:56;2.47;;;2.35;;
13012;SDS011;22580;57.670;12.006;2023-06-14T11:26:28;3.13;;;2.03;;
13012;SDS011;22580;57.670;12.006;2023-06-14T11:28:58;3.67;;;2.67;;
13012;SDS011;22580;57.670;12.006;2023-06-14T11:31:26;3.30;;;2.40;;
13012;SDS011;22580;57.670;12.006;2023-06-14T11:33:54;3.95;;;2.83;;
13012;SDS011;22580;57.670;12.006;2023-06-14T11:36:22;2.70;;;2.50;;
13012;SDS011;22580;57.670;12.006;2023-06-14T11:38:50;3.70;;;2.55;;
13012;SDS011;22580;57.670;12.006;2023-06-14T11:41:24;3.20;;;2.25;;
13012;SDS011;22580;57.670;12.006;2023-06-14T11:43:52;2.17;;;2.08;;
13012;SDS011;22580;57.670;12.006;2023-06-14T11:46:19;2.40;;;2.20;;
13012;SDS011;22580;57.670;12.006;2023-06-14T11:48:49;3.00;;;2.75;;
13012;SDS011;22580;57.670;12.006;2023-06-14T11:51:16;2.20;;;2.10;;
13012;SDS011;22580;57.670;12.006;2023-06-14T11:53:43;2.28;;;2.17;;
13012;SDS011;22580;57.670;12.006;2023-06-14T11:56:11;2.10;;;2.00;;
13012;SDS011;22580;57.670;12.006;2023-06-14T11:58:38;1.88;;;1.77;;
13012;SDS011;22580;57.670;12.006;2023-06-14T12:01:07;2.58;;;2.40;;
13012;SDS011;22580;57.670;12.006;2023-06-14T12:03:34;2.30;;;2.20;;
13012;SDS011;22580;57.670;12.006;2023-06-14T12:06:06;2.20;;;2.10;;
13012;SDS011;22580;57.670;12.006;2023-06-14T12:08:34;2.30;;;2.20;;
13012;SDS011;22580;57.670;12.006;2023-06-14T12:11:04;2.60;;;2.40;;
13012;SDS011;22580;57.670;12.006;2023-06-14T12:13:33;2.40;;;2.17;;
13012;SDS011;22580;57.670;12.006;2023-06-14T12:16:01;2.17;;;2.08;;
13012;SDS011;22580;57.670;12.006;2023-06-14T12:18:33;3.17;;;2.78;;
13012;SDS011;22580;57.670;12.006;2023-06-14T12:21:00;3.13;;;2.83;;
13012;SDS011;22580;57.670;12.006;2023-06-14T12:23:44;2.38;;;2.25;;
13012;SDS011;22580;57.670;12.006;2023-06-14T12:26:13;2.20;;;2.10;;
13012;SDS011;22580;57.670;12.006;2023-06-14T12:28:43;2.50;;;2.40;;
13012;SDS011;22580;57.670;12.006;2023-06-14T12:31:11;3.78;;;2.60;;
13012;SDS011;22580;57.670;12.006;2023-06-14T12:33:39;3.45;;;2.42;;
13012;SDS011;22580;57.670;12.006;2023-06-14T12:36:07;2.30;;;2.17;;
13012;SDS011;22580;57.670;12.006;2023-06-14T12:38:36;2.45;;;2.22;;
13012;SDS011;22580;57.670;12.006;2023-06-14T12:41:03;2.53;;;2.33;;
13012;SDS011;22580;57.670;12.006;2023-06-14T12:43:31;2.50;;;2.30;;
13012;SDS011;22580;57.670;12.006;2023-06-14T12:45:59;2.80;;;2.60;;
13012;SDS011;22580;57.670;12.006;2023-06-14T12:48:26;2.53;;;2.33;;
13012;SDS011;22580;57.670;12.006;2023-06-14T12:50:55;2.60;;;2.40;;
13012;SDS011;22580;57.670;12.006;2023-06-14T12:53:22;3.40;;;2.72;;
13012;SDS011;22580;57.670;12.006;2023-06-14T12:55:49;3.00;;;2.30;;
13012;SDS011;22580;57.670;12.006;2023-06-14T12:58:16;2.72;;;2.53;;
13012;SDS011;22580;57.670;12.006;2023-06-14T13:00:44;2.80;;;2.60;;
13012;SDS011;22580;57.670;12.006;2023-06-14T13:03:13;3.00;;;2.80;;
13012;SDS011;22580;57.670;12.006;2023-06-14T13:05:40;2.60;;;2.40;;
13012;SDS011;22580;57.670;12.006;2023-06-14T13:08:08;2.25;;;2.13;;
13012;SDS011;22580;57.670;12.006;2023-06-14T13:10:35;2.88;;;2.65;;
13012;SDS011;22580;57.670;12.006;2023-06-14T13:13:02;2.30;;;2.20;;
13012;SDS011;22580;57.670;12.006;2023-06-14T13:15:29;3.25;;;2.95;;
13012;SDS011;22580;57.670;12.006;2023-06-14T13:17:56;2.92;;;2.35;;
13012;SDS011;22580;57.670;12.006;2023-06-14T13:20:25;2.53;;;2.33;;
13012;SDS011;22580;57.670;12.006;2023-06-14T13:22:51;2.33;;;2.10;;
13012;SDS011;22580;57.670;12.006;2023-06-14T13:25:19;2.83;;;2.50;;
13012;SDS011;22580;57.670;12.006;2023-06-14T13:27:47;2.40;;;2.30;;
13012;SDS011;22580;57.670;12.006;2023-06-14T13:30:14;2.45;;;2.28;;
13012;SDS011;22580;57.670;12.006;2023-06-14T13:32:41;2.53;;;2.42;;
13012;SDS011;22580;57.670;12.006;2023-06-14T13:35:09;3.05;;;2.40;;
13012;SDS011;22580;57.670;12.006;2023-06-14T13:37:37;2.63;;;2.53;;
13012;SDS011;22580;57.670;12.006;2023-06-14T13:40:05;2.40;;;2.30;;
13012;SDS011;22580;57.670;12.006;2023-06-14T13:42:33;2.25;;;2.10;;
13012;SDS011;22580;57.670;12.006;2023-06-14T13:45:02;2.40;;;2.30;;
13012;SDS011;22580;57.670;12.006;2023-06-14T13:47:31;2.00;;;1.90;;
13012;SDS011;22580;57.670;12.006;2023-06-14T13:49:58;2.22;;;2.03;;
13012;SDS011;22580;57.670;12.006;2023-06-14T13:52:25;2.42;;;2.33;;
13012;SDS011;22580;57.670;12.006;2023-06-14T13:54:54;2.33;;;2.22;;
13012;SDS011;22580;57.670;12.006;2023-06-14T13:57:21;2.85;;;2.65;;
13012;SDS011;22580;57.670;12.006;2023-06-14T13:59:48;2.85;;;2.53;;
13012;SDS011;22580;57.670;12.006;2023-06-14T14:02:15;2.83;;;2.63;;
13012;SDS011;22580;57.670;12.006;2023-06-14T14:04:42;2.22;;;2.13;;
13012;SDS011;22580;57.670;12.006;2023-06-14T14:07:09;2.10;;;2.00;;
13012;SDS011;22580;57.670;12.006;2023-06-14T14:09:36;2.20;;;2.10;;
13012;SDS011;22580;57.670;12.006;2023-06-14T14:12:06;2.30;;;2.17;;
13012;SDS011;22580;57.670;12.006;2023-06-14T14:14:34;2.47;;;2.17;;
13012;SDS011;22580;57.670;12.006;2023-06-14T14:17:00;2.53;;;2.40;;
13012;SDS011;22580;57.670;12.006;2023-06-14T14:19:27;2.40;;;2.30;;
13012;SDS011;22580;57.670;12.006;2023-06-14T14:21:55;2.60;;;2.40;;
13012;SDS011;22580;57.670;12.006;2023-06-14T14:24:22;2.28;;;2.17;;
13012;SDS011;22580;57.670;12.006;2023-06-14T14:26:49;2.40;;;2.22;;
13012;SDS011;22580;57.670;12.006;2023-06-14T14:29:29;2.45;;;2.25;;
13012;SDS011;22580;57.670;12.006;2023-06-14T14:31:56;2.17;;;2.08;;
13012;SDS011;22580;57.670;12.006;2023-06-14T14:34:26;2.30;;;2.20;;
13012;SDS011;22580;57.670;12.006;2023-06-14T14:36:53;2.70;;;2.60;;
13012;SDS011;22580;57.670;12.006;2023-06-14T14:39:20;2.45;;;2.25;;
13012;SDS011;22580;57.670;12.006;2023-06-14T14:41:47;2.20;;;2.10;;
13012;SDS011;22580;57.670;12.006;2023-06-14T14:44:15;2.30;;;2.13;;
13012;SDS011;22580;57.670;12.006;2023-06-14T14:46:44;2.22;;;2.13;;
13012;SDS011;22580;57.670;12.006;2023-06-14T14:49:11;2.70;;;2.50;;
13012;SDS011;22580;57.670;12.006;2023-06-14T14:51:38;2.40;;;2.30;;